createdAt,value
2018-03-16T00:01:18.382Z,29.95
2018-03-16T00:03:46.638Z,33.30
2018-03-16T00:06:14.157Z,29.15
2018-03-16T00:08:41.661Z,33.88
2018-03-16T00:11:09.261Z,26.30
2018-03-16T00:13:36.832Z,27.87
2018-03-16T00:16:04.356Z,31.27
2018-03-16T00:18:32.613Z,32.90
2018-03-16T00:21:00.205Z,28.60
2018-03-16T00:23:28.545Z,29.12
2018-03-16T00:25:56.055Z,28.33
2018-03-16T00:28:23.747Z,30.60
2018-03-16T00:30:51.272Z,29.85
2018-03-16T00:33:18.866Z,31.30
2018-03-16T00:35:46.362Z,32.22
2018-03-16T00:38:14.070Z,34.38
2018-03-16T00:40:41.558Z,31.52
2018-03-16T00:43:09.149Z,33.15
2018-03-16T00:45:37.057Z,32.40
2018-03-16T00:48:05.375Z,30.62
2018-03-16T00:50:32.935Z,34.40
2018-03-16T00:53:00.418Z,33.60
2018-03-16T00:55:28.709Z,31.27
2018-03-16T00:57:56.967Z,29.02
2018-03-16T01:00:25.221Z,32.17
2018-03-16T01:02:52.723Z,31.45
2018-03-16T01:05:20.347Z,35.20
2018-03-16T01:07:48.646Z,29.58
2018-03-16T01:10:16.921Z,30.27
2018-03-16T01:12:45.171Z,32.72
2018-03-16T01:15:12.657Z,35.97
2018-03-16T01:17:40.922Z,30.08
2018-03-16T01:20:08.468Z,37.92
2018-03-16T01:22:36.228Z,31.98
2018-03-16T01:25:03.792Z,33.47
2018-03-16T01:27:31.281Z,28.62
2018-03-16T01:29:58.843Z,32.20
2018-03-16T01:32:27.205Z,33.40
2018-03-16T01:34:54.734Z,31.73
2018-03-16T01:37:22.218Z,29.37
2018-03-16T01:39:49.726Z,36.03
2018-03-16T01:42:17.228Z,35.08
2018-03-16T01:44:45.564Z,36.80
2018-03-16T01:47:13.093Z,35.08
2018-03-16T01:49:41.343Z,32.47
2018-03-16T01:52:08.958Z,39.55
2018-03-16T01:54:36.456Z,30.60
2018-03-16T01:57:03.979Z,32.75
2018-03-16T01:59:31.573Z,30.80
2018-03-16T02:01:59.084Z,30.67
2018-03-16T02:04:26.583Z,31.95
2018-03-16T02:06:54.080Z,29.52
2018-03-16T02:09:22.341Z,28.15
2018-03-16T02:11:50.590Z,34.50
2018-03-16T02:14:18.863Z,35.38
2018-03-16T02:16:46.366Z,28.60
2018-03-16T02:19:14.626Z,29.90
2018-03-16T02:21:42.901Z,30.40
2018-03-16T02:24:10.415Z,33.55
2018-03-16T02:26:37.918Z,23.60
2018-03-16T02:29:05.548Z,26.95
2018-03-16T02:31:33.059Z,25.48
2018-03-16T02:34:01.314Z,24.77
2018-03-16T02:36:28.806Z,23.08
2018-03-16T02:38:56.307Z,22.20
2018-03-16T02:41:23.902Z,18.60
2018-03-16T02:43:52.190Z,17.35
2018-03-16T02:46:20.503Z,20.30
2018-03-16T02:48:48.013Z,23.48
2018-03-16T02:51:15.558Z,17.37
2018-03-16T02:53:43.067Z,16.70
2018-03-16T02:56:10.554Z,17.45
2018-03-16T02:58:38.111Z,18.83
2018-03-16T03:01:05.621Z,16.52
2018-03-16T03:03:33.886Z,16.40
2018-03-16T03:06:02.250Z,17.62
2018-03-16T03:08:30.579Z,16.75
2018-03-16T03:10:58.088Z,16.15
2018-03-16T03:13:25.576Z,16.37
2018-03-16T03:15:53.816Z,16.83
2018-03-16T03:18:21.461Z,16.05
2018-03-16T03:20:49.060Z,17.05
2018-03-16T03:23:16.791Z,15.18
2018-03-16T03:25:44.287Z,19.00
2018-03-16T03:28:12.677Z,16.70
2018-03-16T03:30:40.922Z,18.80
2018-03-16T03:33:08.406Z,15.35
2018-03-16T03:35:36.661Z,15.25
2018-03-16T03:38:04.252Z,19.12
2018-03-16T03:40:31.741Z,15.30
2018-03-16T03:42:59.370Z,17.30
2018-03-16T03:45:26.862Z,16.77
2018-03-16T03:47:54.342Z,16.75
2018-03-16T03:50:21.838Z,15.02
2018-03-16T03:52:50.122Z,13.23
2018-03-16T03:55:18.368Z,13.25
2018-03-16T03:57:45.853Z,15.38
2018-03-16T04:00:15.042Z,16.10
2018-03-16T04:02:42.748Z,16.52
2018-03-16T04:05:10.245Z,15.98
2018-03-16T04:07:37.730Z,13.52
2018-03-16T04:10:06.041Z,17.42
2018-03-16T04:12:33.550Z,16.73
2018-03-16T04:15:01.863Z,15.55
2018-03-16T04:17:29.394Z,16.05
2018-03-16T04:19:56.894Z,17.15
2018-03-16T04:22:24.374Z,19.40
2018-03-16T04:24:51.858Z,13.57
2018-03-16T04:27:19.370Z,15.43
2018-03-16T04:29:46.867Z,14.00
2018-03-16T04:32:14.355Z,15.13
2018-03-16T04:34:42.622Z,14.52
2018-03-16T04:37:10.405Z,14.87
2018-03-16T04:39:37.967Z,12.80
2018-03-16T04:42:05.462Z,15.23
2018-03-16T04:44:33.259Z,13.93
2018-03-16T04:47:00.737Z,16.08
2018-03-16T04:49:29.000Z,14.68
2018-03-16T04:51:57.351Z,18.27
2018-03-16T04:54:24.835Z,17.33
2018-03-16T04:56:52.354Z,17.52
2018-03-16T04:59:19.854Z,19.77
2018-03-16T05:01:47.402Z,19.85
2018-03-16T05:04:14.918Z,19.80
2018-03-16T05:06:42.394Z,20.33
2018-03-16T05:09:09.878Z,22.45
2018-03-16T05:11:37.564Z,20.27
2018-03-16T05:14:05.053Z,24.92
2018-03-16T05:16:32.535Z,21.30
2018-03-16T05:19:00.047Z,21.37
2018-03-16T05:21:28.298Z,23.08
2018-03-16T05:23:56.582Z,22.90
2018-03-16T05:26:24.090Z,25.17
2018-03-16T05:28:51.579Z,27.27
2018-03-16T05:31:19.071Z,24.40
2018-03-16T05:33:46.562Z,25.02
2018-03-16T05:36:14.062Z,26.17
2018-03-16T05:38:41.553Z,28.12
2018-03-16T05:41:10.874Z,27.23
2018-03-16T05:43:38.403Z,28.12
2018-03-16T05:46:05.969Z,28.45
2018-03-16T05:48:34.222Z,27.40
2018-03-16T05:51:01.706Z,25.12
2018-03-16T05:53:29.975Z,25.17
2018-03-16T05:55:58.235Z,26.35
2018-03-16T05:58:25.713Z,26.83
2018-03-16T06:00:54.000Z,25.65
2018-03-16T06:03:21.494Z,27.02
2018-03-16T06:05:48.993Z,25.83
2018-03-16T06:08:16.678Z,23.15
2018-03-16T06:10:44.180Z,25.42
2018-03-16T06:13:11.670Z,25.85
2018-03-16T06:15:39.318Z,27.83
2018-03-16T06:18:06.942Z,23.80
2018-03-16T06:20:34.683Z,24.02
2018-03-16T06:23:03.030Z,29.33
2018-03-16T06:25:31.377Z,23.85
2018-03-16T06:27:58.928Z,26.08
2018-03-16T06:30:26.447Z,25.00
2018-03-16T06:32:54.034Z,28.38
2018-03-16T06:35:21.539Z,26.83
2018-03-16T06:37:49.138Z,27.05
2018-03-16T06:40:16.946Z,27.10
2018-03-16T06:42:44.598Z,28.52
2018-03-16T06:45:13.579Z,26.33
2018-03-16T06:47:41.079Z,26.45
2018-03-16T06:50:09.374Z,27.83
2018-03-16T06:52:36.916Z,27.60
2018-03-16T06:55:05.986Z,30.52
2018-03-16T06:57:33.491Z,30.98
2018-03-16T07:00:00.995Z,35.88
2018-03-16T07:02:28.485Z,36.60
2018-03-16T07:04:55.966Z,37.78
2018-03-16T07:07:24.337Z,35.72
2018-03-16T07:09:52.618Z,38.63
2018-03-16T07:12:20.151Z,39.65
2018-03-16T07:14:47.813Z,37.25
2018-03-16T07:17:16.190Z,35.90
2018-03-16T07:19:43.838Z,43.85
2018-03-16T07:22:11.385Z,44.30
2018-03-16T07:24:38.892Z,45.60
2018-03-16T07:27:06.514Z,39.95
2018-03-16T07:29:34.051Z,39.38
2018-03-16T07:32:01.546Z,35.20
2018-03-16T07:34:29.046Z,40.10
2018-03-16T07:36:56.614Z,40.72
2018-03-16T07:39:24.111Z,38.28
2018-03-16T07:41:51.722Z,46.30
2018-03-16T07:44:19.235Z,40.10
2018-03-16T07:46:46.768Z,37.35
2018-03-16T07:49:14.446Z,42.65
2018-03-16T07:51:41.983Z,40.78
2018-03-16T07:54:09.686Z,47.08
2018-03-16T07:56:37.190Z,38.35
2018-03-16T07:59:05.468Z,39.17
2018-03-16T08:01:33.713Z,43.47
2018-03-16T08:04:01.230Z,39.45
2018-03-16T08:06:28.714Z,45.58
2018-03-16T08:08:56.784Z,42.47
2018-03-16T08:11:24.290Z,42.00
2018-03-16T08:13:52.541Z,35.25
2018-03-16T08:16:20.022Z,35.92
2018-03-16T08:18:48.290Z,35.35
2018-03-16T08:21:16.601Z,38.42
2018-03-16T08:23:45.644Z,35.78
2018-03-16T08:26:13.149Z,35.97
2018-03-16T08:28:40.634Z,32.50
2018-03-16T08:31:08.125Z,26.08
2018-03-16T08:33:35.619Z,23.95
2018-03-16T08:36:03.162Z,27.90
2018-03-16T08:38:30.675Z,31.85
2018-03-16T08:40:58.282Z,25.85
2018-03-16T08:43:25.817Z,24.75
2018-03-16T08:45:53.306Z,24.23
2018-03-16T08:48:21.594Z,23.98
2018-03-16T08:50:49.094Z,22.00
2018-03-16T08:53:16.598Z,31.67
2018-03-16T08:55:44.908Z,23.52
2018-03-16T08:58:12.422Z,24.25
2018-03-16T09:00:40.702Z,18.02
2018-03-16T09:03:08.248Z,21.08
2018-03-16T09:05:35.736Z,24.73
2018-03-16T09:08:03.266Z,26.40
2018-03-16T09:10:31.534Z,23.48
2018-03-16T09:12:59.032Z,18.77
2018-03-16T09:15:26.621Z,19.52
2018-03-16T09:17:54.298Z,17.35
2018-03-16T09:20:21.898Z,24.83
2018-03-16T09:22:50.191Z,18.87
2018-03-16T09:25:17.720Z,17.20
2018-03-16T09:27:45.207Z,17.27
2018-03-16T09:30:12.714Z,19.42
2018-03-16T09:32:40.206Z,18.50
2018-03-16T09:35:08.475Z,20.33
2018-03-16T09:37:36.033Z,19.00
2018-03-16T09:40:03.601Z,15.75
2018-03-16T09:42:31.871Z,20.27
2018-03-16T09:44:59.358Z,22.27
2018-03-16T09:47:26.854Z,18.05
2018-03-16T09:49:54.371Z,18.98
2018-03-16T09:52:21.863Z,13.85
2018-03-16T09:55:01.345Z,15.52
2018-03-16T09:57:28.913Z,14.07
2018-03-16T09:59:57.182Z,13.57
2018-03-16T10:02:24.690Z,17.73
2018-03-16T10:04:52.173Z,11.50
2018-03-16T10:07:19.695Z,15.18
2018-03-16T10:09:47.198Z,12.63
2018-03-16T10:12:14.694Z,18.20
2018-03-16T10:14:42.967Z,12.98
2018-03-16T10:17:11.244Z,21.95
2018-03-16T10:19:39.505Z,16.00
2018-03-16T10:22:06.990Z,18.30
2018-03-16T10:24:34.494Z,16.83
2018-03-16T10:27:01.990Z,25.77
2018-03-16T10:29:30.267Z,16.23
2018-03-16T10:31:58.536Z,28.02
2018-03-16T10:34:26.784Z,12.68
2018-03-16T10:36:54.345Z,15.20
2018-03-16T10:39:21.837Z,21.37
2018-03-16T10:41:50.089Z,16.62
2018-03-16T10:44:17.611Z,15.88
2018-03-16T10:46:45.098Z,20.45
2018-03-16T10:49:12.589Z,13.50
2018-03-16T10:51:40.991Z,14.07
2018-03-16T10:54:08.491Z,13.02
2018-03-16T10:56:36.095Z,12.03
2018-03-16T10:59:03.648Z,15.90
2018-03-16T11:01:37.526Z,16.03
2018-03-16T11:04:10.774Z,12.03
2018-03-16T11:06:38.262Z,15.30
2018-03-16T11:09:05.752Z,12.90
2018-03-16T11:11:33.261Z,12.73
2018-03-16T11:14:00.758Z,10.63
2018-03-16T11:16:28.253Z,16.00
2018-03-16T11:18:56.514Z,13.47
2018-03-16T11:21:24.974Z,13.80
2018-03-16T11:23:52.518Z,16.10
2018-03-16T11:26:20.014Z,18.83
2018-03-16T11:28:48.350Z,15.77
2018-03-16T11:31:15.961Z,14.70
2018-03-16T11:33:44.209Z,21.00
2018-03-16T11:36:11.694Z,13.23
2018-03-16T11:38:40.083Z,16.60
2018-03-16T11:41:08.342Z,10.70
2018-03-16T11:43:35.932Z,12.67
2018-03-16T11:46:03.430Z,12.03
2018-03-16T11:48:30.917Z,9.87
2018-03-16T11:50:58.410Z,10.53
2018-03-16T11:53:25.963Z,13.83
2018-03-16T11:55:53.498Z,11.07
2018-03-16T11:58:21.023Z,9.60
2018-03-16T12:00:48.522Z,13.73
2018-03-16T12:03:16.791Z,7.83
2018-03-16T12:05:44.266Z,11.50
2018-03-16T12:08:12.509Z,14.53
2018-03-16T12:10:40.043Z,13.17
2018-03-16T12:13:07.545Z,12.20
2018-03-16T12:15:35.794Z,14.73
2018-03-16T12:18:03.334Z,12.53
2018-03-16T12:20:30.822Z,12.13
2018-03-16T12:22:58.426Z,15.80
2018-03-16T12:25:26.688Z,13.07
2018-03-16T12:27:54.935Z,13.50
2018-03-16T12:30:22.622Z,17.33
2018-03-16T12:32:50.869Z,13.83
2018-03-16T12:35:18.359Z,10.67
2018-03-16T12:37:46.625Z,9.83
2018-03-16T12:40:14.115Z,11.57
2018-03-16T12:42:41.594Z,12.47
2018-03-16T12:45:09.268Z,15.13
2018-03-16T12:47:36.778Z,10.17
2018-03-16T12:50:04.326Z,12.03
2018-03-16T12:52:31.942Z,9.83
2018-03-16T12:54:59.590Z,12.23
2018-03-16T12:57:27.147Z,11.40
2018-03-16T12:59:54.675Z,8.33
2018-03-16T13:02:22.921Z,11.37
2018-03-16T13:04:50.409Z,12.00
2018-03-16T13:07:18.677Z,11.97
2018-03-16T13:09:46.924Z,9.80
2018-03-16T13:12:14.414Z,8.90
2018-03-16T13:14:41.899Z,8.57
2018-03-16T13:17:09.397Z,14.37
2018-03-16T13:19:36.902Z,10.27
2018-03-16T13:22:04.378Z,8.43
2018-03-16T13:24:31.863Z,8.93
2018-03-16T13:26:59.366Z,6.80
2018-03-16T13:29:27.611Z,6.70
2018-03-16T13:31:55.134Z,7.97
2018-03-16T13:34:22.614Z,11.67
2018-03-16T13:36:50.099Z,7.47
2018-03-16T13:39:18.395Z,14.43
2018-03-16T13:41:46.640Z,12.63
2018-03-16T13:44:14.118Z,12.10
2018-03-16T13:46:42.383Z,8.10
2018-03-16T13:49:09.872Z,9.70
2018-03-16T13:51:37.398Z,9.07
2018-03-16T13:54:04.972Z,12.30
2018-03-16T13:56:32.417Z,14.00
2018-03-16T13:59:00.716Z,8.13
2018-03-16T14:01:28.218Z,8.23
2018-03-16T14:03:55.694Z,7.47
2018-03-16T14:06:23.210Z,8.57
2018-03-16T14:08:51.547Z,7.93
2018-03-16T14:11:19.811Z,10.70
2018-03-16T14:13:47.323Z,8.43
2018-03-16T14:16:14.816Z,9.30
2018-03-16T14:18:42.301Z,8.57
2018-03-16T14:21:10.575Z,10.00
2018-03-16T14:23:38.837Z,10.23
2018-03-16T14:26:06.322Z,10.03
2018-03-16T14:28:34.577Z,9.13
2018-03-16T14:31:02.221Z,9.40
2018-03-16T14:33:29.698Z,9.83
2018-03-16T14:35:57.222Z,9.67
2018-03-16T14:38:24.707Z,11.00
2018-03-16T14:40:52.186Z,10.47
2018-03-16T14:43:20.450Z,9.13
2018-03-16T14:45:48.726Z,11.43
2018-03-16T14:48:16.985Z,10.53
2018-03-16T14:50:44.482Z,9.53
2018-03-16T14:53:12.733Z,9.33
2018-03-16T14:55:40.222Z,11.00
2018-03-16T14:58:07.714Z,8.43
2018-03-16T15:00:35.210Z,7.80
2018-03-16T15:03:03.494Z,6.43
2018-03-16T15:05:31.771Z,8.90
2018-03-16T15:08:00.058Z,7.13
2018-03-16T15:10:28.322Z,6.63
2018-03-16T15:12:56.612Z,9.60
2018-03-16T15:15:24.100Z,6.27
2018-03-16T15:17:51.594Z,6.10
2018-03-16T15:22:53.806Z,4.57
2018-03-16T15:25:22.078Z,5.67
2018-03-16T15:27:50.410Z,11.83
2018-03-16T15:30:18.733Z,10.20
2018-03-16T15:32:47.006Z,6.27
2018-03-16T15:35:15.283Z,6.30
2018-03-16T15:37:43.579Z,10.43
2018-03-16T15:40:11.094Z,8.60
2018-03-16T15:42:38.628Z,6.03
2018-03-16T15:45:07.677Z,7.13
2018-03-16T15:47:35.951Z,9.00
2018-03-16T15:50:04.403Z,6.03
2018-03-16T15:52:37.331Z,7.17
2018-03-16T15:55:06.452Z,6.83
2018-03-16T15:57:36.247Z,7.30
2018-03-16T16:00:04.966Z,5.00
2018-03-16T16:02:33.445Z,10.57
2018-03-16T16:05:02.267Z,11.13
2018-03-16T16:07:29.846Z,10.97
2018-03-16T16:09:58.228Z,9.97
2018-03-16T16:12:26.306Z,15.70
2018-03-16T16:14:54.682Z,14.90
2018-03-16T16:17:22.197Z,16.40
2018-03-16T16:19:49.725Z,12.73
2018-03-16T16:22:17.212Z,15.20
2018-03-16T16:24:44.740Z,18.40
2018-03-16T16:27:12.296Z,15.97
2018-03-16T16:29:39.898Z,18.20
2018-03-16T16:32:07.470Z,20.30
2018-03-16T16:34:35.005Z,18.23
2018-03-16T16:37:02.576Z,15.50
2018-03-16T16:39:30.157Z,21.63
2018-03-16T16:41:57.696Z,15.87
2018-03-16T16:44:25.254Z,17.07
2018-03-16T16:46:52.815Z,14.63
2018-03-16T16:49:20.320Z,17.27
2018-03-16T16:51:47.827Z,17.70
2018-03-16T16:54:15.375Z,21.00
2018-03-16T16:56:43.565Z,18.17
2018-03-16T16:59:11.116Z,17.97
2018-03-16T17:01:38.627Z,19.53
2018-03-16T17:04:06.155Z,16.47
2018-03-16T17:06:33.685Z,15.87
2018-03-16T17:09:01.210Z,17.93
2018-03-16T17:11:28.744Z,18.70
2018-03-16T17:13:57.043Z,17.73
2018-03-16T17:16:24.598Z,26.47
2018-03-16T17:18:52.208Z,16.07
2018-03-16T17:21:19.755Z,20.03
2018-03-16T17:23:47.265Z,25.00
2018-03-16T17:26:15.607Z,18.52
2018-03-16T17:28:43.123Z,24.63
2018-03-16T17:31:10.620Z,23.53
2018-03-16T17:33:38.226Z,23.33
2018-03-16T17:36:06.492Z,28.90
2018-03-16T17:38:34.783Z,31.03
2018-03-16T17:41:02.398Z,32.73
2018-03-16T17:43:29.914Z,34.13
2018-03-16T17:45:57.500Z,33.00
2018-03-16T17:48:25.002Z,31.55
2018-03-16T17:50:54.256Z,32.03
2018-03-16T17:53:21.835Z,38.55
2018-03-16T17:55:49.473Z,33.47
2018-03-16T17:58:17.239Z,41.22
2018-03-16T18:00:44.856Z,42.97
2018-03-16T18:03:13.282Z,41.85
2018-03-16T18:05:40.871Z,38.33
2018-03-16T18:08:08.439Z,39.72
2018-03-16T18:10:36.146Z,35.92
2018-03-16T18:13:03.732Z,38.58
2018-03-16T18:15:31.319Z,41.92
2018-03-16T18:17:59.689Z,45.33
2018-03-16T18:20:27.234Z,44.20
2018-03-16T18:22:54.828Z,44.95
2018-03-16T18:25:23.117Z,43.95
2018-03-16T18:27:51.473Z,41.13
2018-03-16T18:30:19.036Z,50.70
2018-03-16T18:32:46.530Z,44.58
2018-03-16T18:35:14.071Z,44.58
2018-03-16T18:37:42.350Z,48.00
2018-03-16T18:40:10.659Z,40.90
2018-03-16T18:42:38.222Z,48.13
2018-03-16T18:45:05.814Z,49.83
2018-03-16T18:47:33.375Z,52.55
2018-03-16T18:50:00.938Z,63.67
2018-03-16T18:52:29.295Z,61.25
2018-03-16T18:54:56.862Z,58.53
2018-03-16T18:57:24.435Z,69.87
2018-03-16T18:59:51.978Z,65.60
2018-03-16T19:02:19.537Z,73.15
2018-03-16T19:04:47.137Z,63.20
2018-03-16T19:07:14.728Z,65.80
2018-03-16T19:09:42.995Z,55.08
2018-03-16T19:12:10.563Z,56.00
2018-03-16T19:14:38.096Z,52.75
2018-03-16T19:17:05.699Z,48.95
2018-03-16T19:19:33.308Z,50.72
2018-03-16T19:22:00.829Z,49.33
2018-03-16T19:24:28.452Z,50.33
2018-03-16T19:26:56.741Z,52.80
2018-03-16T19:29:24.274Z,53.70
2018-03-16T19:31:51.854Z,53.45
2018-03-16T19:34:19.382Z,48.70
2018-03-16T19:36:46.909Z,54.78
2018-03-16T19:39:14.479Z,44.50
2018-03-16T19:41:42.014Z,54.95
2018-03-16T19:44:09.538Z,54.90
2018-03-16T19:46:37.113Z,55.45
2018-03-16T19:49:04.701Z,58.28
2018-03-16T19:51:32.258Z,60.78
2018-03-16T19:53:59.811Z,60.65
2018-03-16T19:56:27.346Z,56.22
2018-03-16T19:58:54.882Z,55.72
2018-03-16T20:01:23.213Z,55.03
2018-03-16T20:03:50.811Z,56.63
2018-03-16T20:06:18.310Z,59.65
2018-03-16T20:08:45.861Z,58.33
2018-03-16T20:11:14.286Z,59.67
2018-03-16T20:13:41.778Z,59.38
2018-03-16T20:16:10.109Z,53.78
2018-03-16T20:18:37.615Z,51.63
2018-03-16T20:21:05.905Z,59.05
2018-03-16T20:23:34.232Z,50.10
2018-03-16T20:26:01.739Z,50.60
2018-03-16T20:28:30.015Z,56.63
2018-03-16T20:30:58.397Z,55.33
2018-03-16T20:33:26.671Z,53.83
2018-03-16T20:35:54.996Z,47.65
2018-03-16T20:38:22.590Z,52.03
2018-03-16T20:40:50.083Z,47.95
2018-03-16T20:43:17.579Z,49.90
2018-03-16T20:45:45.086Z,47.90
2018-03-16T20:48:13.355Z,53.55
2018-03-16T20:50:41.602Z,51.80
2018-03-16T20:53:09.227Z,47.42
2018-03-16T20:55:36.726Z,50.20
2018-03-16T20:58:04.230Z,47.60
2018-03-16T21:00:31.839Z,47.10
2018-03-16T21:02:59.346Z,43.35
2018-03-16T21:05:26.879Z,39.33
2018-03-16T21:07:54.552Z,43.08
2018-03-16T21:10:22.856Z,42.97
2018-03-16T21:12:50.342Z,44.90
2018-03-16T21:15:17.885Z,43.80
2018-03-16T21:17:45.418Z,39.85
2018-03-16T21:20:12.903Z,45.83
2018-03-16T21:22:40.550Z,42.47
2018-03-16T21:25:08.970Z,44.20
2018-03-16T21:27:36.490Z,45.40
2018-03-16T21:30:04.002Z,49.30
2018-03-16T21:32:31.490Z,43.83
2018-03-16T21:34:59.742Z,38.40
2018-03-16T21:37:27.249Z,47.17
2018-03-16T21:39:54.793Z,52.45
2018-03-16T21:42:22.275Z,50.00
2018-03-16T21:44:49.863Z,49.55
2018-03-16T21:47:17.362Z,50.28
2018-03-16T21:49:44.886Z,47.92
2018-03-16T21:52:12.446Z,40.78
2018-03-16T21:54:40.056Z,48.70
2018-03-16T21:57:07.574Z,47.35
2018-03-16T21:59:35.207Z,44.15
2018-03-16T22:02:02.777Z,47.90
2018-03-16T22:04:31.074Z,46.63
2018-03-16T22:06:58.589Z,47.65
2018-03-16T22:09:26.188Z,47.75
2018-03-16T22:11:54.541Z,49.15
2018-03-16T22:14:22.046Z,52.28
2018-03-16T22:16:50.302Z,53.20
2018-03-16T22:19:17.820Z,56.80
2018-03-16T22:21:45.379Z,58.20
2018-03-16T22:24:12.874Z,56.92
2018-03-16T22:26:40.355Z,61.22
2018-03-16T22:29:08.739Z,63.55
2018-03-16T22:31:36.438Z,71.30
2018-03-16T22:34:03.947Z,53.80
2018-03-16T22:36:32.307Z,65.72
2018-03-16T22:38:59.863Z,58.30
2018-03-16T22:41:27.379Z,57.35
2018-03-16T22:43:54.986Z,55.97
2018-03-16T22:46:22.481Z,58.80
2018-03-16T22:48:50.178Z,58.20
2018-03-16T22:51:17.731Z,66.90
2018-03-16T22:53:45.392Z,63.28
2018-03-16T22:56:13.020Z,57.58
2018-03-16T22:58:41.458Z,51.10
2018-03-16T23:01:09.015Z,53.72
2018-03-16T23:03:38.038Z,59.83
2018-03-16T23:06:07.020Z,63.35
2018-03-16T23:08:35.154Z,65.65
2018-03-16T23:11:07.105Z,72.15
2018-03-16T23:13:34.600Z,68.65
2018-03-16T23:16:02.330Z,64.93
2018-03-16T23:18:29.979Z,70.93
2018-03-16T23:21:00.525Z,66.75
2018-03-16T23:23:32.614Z,67.70
2018-03-16T23:26:01.480Z,66.57
2018-03-16T23:28:29.372Z,60.72
2018-03-16T23:31:02.314Z,57.55
2018-03-16T23:33:29.862Z,58.75
2018-03-16T23:35:58.167Z,65.12
2018-03-16T23:38:25.678Z,59.53
2018-03-16T23:40:54.170Z,62.22
2018-03-16T23:43:22.995Z,66.72
2018-03-16T23:45:50.667Z,60.67
2018-03-16T23:48:18.223Z,67.72
2018-03-16T23:50:46.124Z,68.32
2018-03-16T23:53:14.012Z,58.90
2018-03-16T23:55:42.298Z,66.55
2018-03-16T23:58:10.567Z,63.90
